Terminal Aerodrome Forecast
Issued by NWS

Home | Current Version | Previous Version | Graphics & Text | Print | Product List | Glossary On
Versions: 1 2 3 4 5 6 7 8 9 10 11 12 13 14 15 16 17 18 19 20 21 22 23 24 25 26
000
FTUS43 KGRB 252000 AAA
TAFATW
TAF AMD
KATW 252000Z 2520/2618 25015G20KT P6SM BKN025 OVC040
     FM260100 26013G20KT P6SM BKN025
     FM260400 26010KT P6SM SCT025 SCT200
     FM261100 29009KT P6SM BKN020
     FM261500 32013G18KT P6SM BKN030=

USA.gov is the U.S. government's official web portal to all federal, state and local government web resources and services.